Time;durP1;ratioP1;P1;durP2;ratioP2;P2;SDS_P1;SDS_P2;PMS_P1;PMS_P2;Temp;Humidity;BMP_temperature;BMP_pressure;BME280_temperature;BME280_humidity;BME280_pressure;Samples;Min_cycle;Max_cycle;Signal;HPM_P1;HPM_P2
2021/07/07 00:00:58;;;;;;;7.30;3.53;;;16.50;99.90;;;;;;5053532;28;20254;-73
2021/07/07 00:03:26;;;;;;;4.13;3.53;;;16.50;99.90;;;;;;5052015;28;20201;-72
2021/07/07 00:05:51;;;;;;;4.83;3.07;;;16.60;99.90;;;;;;5051631;28;20598;-71
2021/07/07 00:08:17;;;;;;;3.63;2.77;;;16.60;99.90;;;;;;5053425;28;20403;-71
2021/07/07 00:10:43;;;;;;;5.60;3.83;;;16.70;99.90;;;;;;5053394;28;20216;-73
2021/07/07 00:13:08;;;;;;;11.20;3.57;;;16.70;99.90;;;;;;5052787;28;20182;-71
2021/07/07 00:15:34;;;;;;;5.20;2.83;;;16.80;99.90;;;;;;5051622;28;20526;-72
2021/07/07 00:18:03;;;;;;;5.73;3.47;;;16.80;99.90;;;;;;5053159;28;20174;-72
2021/07/07 00:23:27;;;;;;;4.40;3.60;;;16.70;99.90;;;;;;5050966;28;20885;-72
2021/07/07 00:25:54;;;;;;;6.27;4.00;;;16.50;99.90;;;;;;5050727;28;20440;-72
2021/07/07 00:28:20;;;;;;;5.40;4.00;;;16.40;99.90;;;;;;5031490;28;20552;-72
2021/07/07 00:30:51;;;;;;;5.13;3.83;;;16.20;99.90;;;;;;5031468;28;20938;-72
2021/07/07 00:33:17;;;;;;;7.23;4.40;;;16.10;99.90;;;;;;5031361;28;20416;-72
2021/07/07 00:35:43;;;;;;;5.87;3.80;;;16.10;99.90;;;;;;5030745;28;20433;-72
2021/07/07 00:38:09;;;;;;;8.73;4.13;;;16.00;99.90;;;;;;5032389;28;20433;-72
2021/07/07 00:40:35;;;;;;;5.63;3.73;;;15.90;99.90;;;;;;5030667;28;20421;-72
2021/07/07 00:43:01;;;;;;;5.90;4.17;;;15.90;99.90;;;;;;5030712;28;20280;-72
2021/07/07 00:45:27;;;;;;;6.50;3.63;;;15.90;99.90;;;;;;5030513;28;20551;-72
2021/07/07 00:47:53;;;;;;;4.63;3.60;;;15.90;99.90;;;;;;5031917;28;20989;-72
2021/07/07 00:50:19;;;;;;;5.43;3.93;;;16.00;99.90;;;;;;5031017;28;20175;-72
2021/07/07 00:52:45;;;;;;;5.80;4.10;;;16.10;99.90;;;;;;5030995;28;20442;-72
2021/07/07 00:55:13;;;;;;;8.70;4.50;;;16.10;99.90;;;;;;5030883;28;20515;-72
2021/07/07 00:57:41;;;;;;;6.77;4.00;;;16.10;99.90;;;;;;5030833;28;20563;-72
2021/07/07 01:00:09;;;;;;;3.97;3.33;;;16.20;99.90;;;;;;5033582;28;20487;-72
2021/07/07 01:02:40;;;;;;;6.63;3.53;;;16.20;99.90;;;;;;5034656;28;20464;-73
2021/07/07 01:05:08;;;;;;;9.87;3.60;;;16.20;99.90;;;;;;5036175;28;20508;-73
2021/07/07 01:07:33;;;;;;;7.63;4.00;;;16.00;99.90;;;;;;5036608;28;20411;-72
2021/07/07 01:09:59;;;;;;;7.07;3.87;;;15.90;99.90;;;;;;5037355;28;20417;-72
2021/07/07 01:12:26;;;;;;;6.00;4.23;;;15.70;99.90;;;;;;5036204;28;20181;-74
2021/07/07 01:14:54;;;;;;;6.07;4.00;;;15.50;99.90;;;;;;5036082;28;20769;-72
2021/07/07 01:17:20;;;;;;;7.20;3.83;;;15.40;99.90;;;;;;5036205;28;20493;-72
2021/07/07 01:19:47;;;;;;;5.53;3.73;;;15.30;99.90;;;;;;5035740;28;20479;-73
2021/07/07 01:22:13;;;;;;;5.93;3.90;;;15.30;99.90;;;;;;5035919;28;20677;-72
2021/07/07 01:24:38;;;;;;;6.87;3.53;;;15.20;99.90;;;;;;5035798;28;20484;-72
2021/07/07 01:27:04;;;;;;;4.60;3.30;;;15.20;99.90;;;;;;5035724;28;20687;-72
2021/07/07 01:29:30;;;;;;;10.07;4.10;;;15.10;99.90;;;;;;5036781;28;20326;-72
2021/07/07 01:31:56;;;;;;;9.23;4.40;;;15.20;99.90;;;;;;5036212;28;20918;-72
2021/07/07 01:34:21;;;;;;;5.70;3.93;;;15.10;99.90;;;;;;5035737;28;20421;-72
2021/07/07 01:36:47;;;;;;;6.25;4.20;;;15.10;99.90;;;;;;5034547;28;20412;-72
2021/07/07 01:39:13;;;;;;;6.37;4.47;;;15.10;99.90;;;;;;5036633;28;20178;-72
2021/07/07 01:41:39;;;;;;;6.93;4.13;;;15.00;99.90;;;;;;5035322;28;20206;-72
2021/07/07 01:44:06;;;;;;;5.63;4.27;;;15.00;99.90;;;;;;5035427;28;20675;-72
2021/07/07 01:46:32;;;;;;;7.77;3.87;;;15.00;99.90;;;;;;5035240;28;20854;-72
2021/07/07 01:48:58;;;;;;;6.97;4.00;;;15.00;99.90;;;;;;5035749;28;20402;-72
2021/07/07 01:51:24;;;;;;;4.17;3.60;;;15.00;99.90;;;;;;5036365;28;20525;-72
2021/07/07 01:53:50;;;;;;;4.67;3.53;;;15.10;99.90;;;;;;5035429;28;20433;-72
2021/07/07 01:56:15;;;;;;;6.03;3.93;;;15.10;99.90;;;;;;5035148;28;20664;-72
2021/07/07 01:58:41;;;;;;;5.40;4.10;;;15.10;99.90;;;;;;5035943;28;20191;-72
2021/07/07 02:01:07;;;;;;;4.50;3.40;;;15.00;99.90;;;;;;5036028;28;20175;-72
2021/07/07 02:03:33;;;;;;;7.50;4.27;;;15.00;99.90;;;;;;5035233;28;20248;-72
2021/07/07 02:05:58;;;;;;;7.07;3.00;;;15.10;99.90;;;;;;5035291;28;20422;-71
2021/07/07 02:08:24;;;;;;;8.27;3.77;;;15.20;99.90;;;;;;5035306;28;20166;-71
2021/07/07 02:10:49;;;;;;;6.10;3.27;;;15.30;99.90;;;;;;5036251;28;20198;-72
2021/07/07 02:13:15;;;;;;;5.33;3.20;;;15.40;99.90;;;;;;5033553;28;20178;-72
2021/07/07 02:15:41;;;;;;;7.33;4.03;;;15.40;99.90;;;;;;5035341;28;20579;-72
2021/07/07 02:18:08;;;;;;;6.13;3.57;;;15.50;99.90;;;;;;5035297;28;20175;-72
2021/07/07 02:20:39;;;;;;;5.60;3.30;;;15.50;99.90;;;;;;5036664;28;20421;-71
2021/07/07 02:23:05;;;;;;;5.27;3.60;;;15.50;99.90;;;;;;5034361;28;20457;-71
2021/07/07 02:25:33;;;;;;;7.50;3.73;;;15.40;99.90;;;;;;5033945;28;20790;-71
2021/07/07 02:27:59;;;;;;;7.73;3.30;;;15.40;99.90;;;;;;5034651;28;20456;-71
2021/07/07 02:30:29;;;;;;;6.70;4.33;;;15.30;99.90;;;;;;5035931;28;20432;-71
2021/07/07 02:32:55;;;;;;;8.17;3.40;;;15.30;99.90;;;;;;5034397;28;20899;-72
2021/07/07 02:35:27;;;;;;;6.57;3.60;;;15.20;99.90;;;;;;5034251;28;20438;-72
2021/07/07 02:37:53;;;;;;;6.90;3.83;;;15.20;99.90;;;;;;5034286;28;20943;-72
2021/07/07 02:40:20;;;;;;;8.20;4.67;;;15.20;99.90;;;;;;5034337;28;20517;-72
2021/07/07 02:42:46;;;;;;;5.60;3.90;;;15.10;99.90;;;;;;5035213;28;20457;-71
2021/07/07 02:45:13;;;;;;;6.20;3.30;;;15.10;99.90;;;;;;5034081;28;20433;-71
2021/07/07 02:47:39;;;;;;;8.70;3.77;;;15.10;99.90;;;;;;5034407;28;20202;-71
2021/07/07 02:50:07;;;;;;;6.23;3.60;;;15.10;99.90;;;;;;5032757;28;20752;-72
2021/07/07 02:52:33;;;;;;;4.10;3.60;;;15.10;99.90;;;;;;5033690;28;20426;-73
2021/07/07 02:54:58;;;;;;;9.80;3.83;;;15.00;99.90;;;;;;5035177;28;20493;-72
2021/07/07 02:57:24;;;;;;;5.77;3.70;;;15.00;99.90;;;;;;5052115;28;20194;-73
2021/07/07 02:59:49;;;;;;;7.00;4.10;;;15.10;99.90;;;;;;5046682;28;20457;-72
2021/07/07 03:02:15;;;;;;;6.80;3.90;;;15.10;99.90;;;;;;5055177;28;20187;-74
2021/07/07 03:04:41;;;;;;;8.43;3.40;;;15.10;99.90;;;;;;5057378;28;20191;-75
2021/07/07 03:07:07;;;;;;;4.97;3.13;;;15.20;99.90;;;;;;5057341;28;20206;-71
2021/07/07 03:09:34;;;;;;;5.33;3.50;;;15.20;99.90;;;;;;5058000;28;20193;-72
2021/07/07 03:11:59;;;;;;;9.53;3.87;;;15.30;99.90;;;;;;5056995;28;20417;-71
2021/07/07 03:14:25;;;;;;;5.50;3.60;;;15.30;99.90;;;;;;5058288;28;20441;-72
2021/07/07 03:16:50;;;;;;;6.83;4.13;;;15.30;99.90;;;;;;5055568;28;20198;-71
2021/07/07 03:19:16;;;;;;;6.50;3.57;;;15.30;99.90;;;;;;5041197;28;20175;-71
2021/07/07 03:21:42;;;;;;;7.07;3.40;;;15.30;99.90;;;;;;5043512;28;20564;-71
2021/07/07 03:24:10;;;;;;;7.13;3.47;;;15.30;99.90;;;;;;5042648;28;20692;-71
2021/07/07 03:26:35;;;;;;;7.17;3.60;;;15.30;99.90;;;;;;5032198;28;20190;-71
2021/07/07 03:29:01;;;;;;;5.07;3.37;;;15.40;99.90;;;;;;5033644;28;20776;-71
2021/07/07 03:31:26;;;;;;;4.53;3.10;;;15.50;99.90;;;;;;5033587;28;20228;-71
2021/07/07 03:33:52;;;;;;;5.17;3.27;;;15.50;99.90;;;;;;5033490;28;20194;-72
2021/07/07 03:36:19;;;;;;;5.50;3.17;;;15.50;99.90;;;;;;5034858;28;20206;-72
2021/07/07 03:38:45;;;;;;;7.70;3.20;;;15.50;99.90;;;;;;5034528;28;20170;-72
2021/07/07 03:41:11;;;;;;;8.70;3.37;;;15.40;99.90;;;;;;5033390;28;20422;-72
2021/07/07 03:43:36;;;;;;;9.67;4.20;;;15.40;99.90;;;;;;5033056;28;20448;-72
2021/07/07 03:46:02;;;;;;;7.10;3.80;;;15.40;99.90;;;;;;5034222;28;20215;-71
2021/07/07 03:48:27;;;;;;;6.00;3.57;;;15.30;99.90;;;;;;5033294;28;20576;-71
2021/07/07 03:50:53;;;;;;;4.90;3.17;;;15.30;99.90;;;;;;5032011;28;20178;-71
2021/07/07 03:53:18;;;;;;;6.40;3.20;;;15.30;99.90;;;;;;5033149;28;20574;-71
2021/07/07 03:55:44;;;;;;;6.13;3.00;;;15.30;99.90;;;;;;5034598;28;20676;-71
2021/07/07 03:58:09;;;;;;;6.83;3.73;;;15.30;99.90;;;;;;5033029;28;20190;-71
2021/07/07 04:00:35;;;;;;;6.20;3.23;;;15.30;99.90;;;;;;5033803;28;20194;-71
2021/07/07 04:03:00;;;;;;;7.10;3.63;;;15.30;99.90;;;;;;5032859;28;20202;-72
2021/07/07 04:05:27;;;;;;;5.60;3.70;;;15.30;99.90;;;;;;5033243;28;20215;-72
2021/07/07 04:07:53;;;;;;;5.33;3.47;;;15.30;99.90;;;;;;5034691;28;20183;-71
2021/07/07 04:10:19;;;;;;;3.53;3.03;;;15.30;99.90;;;;;;5033274;28;20404;-71
2021/07/07 04:12:45;;;;;;;7.07;3.80;;;15.30;99.90;;;;;;5032941;28;20177;-71
2021/07/07 04:15:12;;;;;;;7.30;3.70;;;15.30;99.90;;;;;;5033517;28;20205;-71
2021/07/07 04:17:38;;;;;;;6.10;3.03;;;15.30;99.90;;;;;;5034211;28;20452;-72
2021/07/07 04:20:07;;;;;;;7.10;4.40;;;15.40;99.90;;;;;;5033523;28;20437;-71
2021/07/07 04:22:32;;;;;;;4.80;3.27;;;15.30;99.90;;;;;;5032878;28;20849;-72
2021/07/07 04:24:58;;;;;;;5.90;3.60;;;15.30;99.90;;;;;;5042973;28;20413;-71
2021/07/07 04:27:24;;;;;;;12.03;3.43;;;15.30;99.90;;;;;;5052549;28;20478;-71
2021/07/07 04:29:50;;;;;;;5.95;3.83;;;15.40;99.90;;;;;;5051806;28;20403;-71
2021/07/07 04:32:18;;;;;;;6.43;3.97;;;15.40;99.90;;;;;;5052780;28;20178;-72
2021/07/07 04:34:45;;;;;;;6.17;3.50;;;15.50;99.90;;;;;;5052254;28;20262;-71
2021/07/07 04:37:12;;;;;;;7.25;3.95;;;15.50;99.90;;;;;;5055395;28;20416;-71
2021/07/07 04:39:38;;;;;;;6.80;4.10;;;15.60;99.90;;;;;;5056570;28;20209;-71
2021/07/07 04:42:04;;;;;;;7.03;3.97;;;15.60;99.90;;;;;;5057290;28;20411;-71
2021/07/07 04:44:29;;;;;;;12.47;3.83;;;15.70;99.90;;;;;;5054622;28;20413;-72
2021/07/07 04:46:55;;;;;;;5.97;3.37;;;15.70;99.90;;;;;;5056459;28;20190;-72
2021/07/07 04:49:20;;;;;;;6.80;3.97;;;15.70;99.90;;;;;;5056467;28;20166;-71
2021/07/07 04:51:46;;;;;;;4.10;2.63;;;15.70;99.90;;;;;;5056561;28;20464;-71
2021/07/07 04:54:12;;;;;;;8.13;4.03;;;15.70;99.90;;;;;;5054614;28;20583;-71
2021/07/07 04:56:37;;;;;;;9.83;4.07;;;15.80;99.90;;;;;;5056724;28;20197;-72
2021/07/07 04:59:03;;;;;;;6.07;3.80;;;15.90;99.90;;;;;;5056292;28;20213;-73
2021/07/07 05:01:28;;;;;;;8.67;4.40;;;16.00;99.90;;;;;;5056185;28;20194;-73
2021/07/07 05:03:54;;;;;;;7.57;4.10;;;16.00;99.90;;;;;;5055745;28;20671;-73
2021/07/07 05:06:19;;;;;;;10.93;4.40;;;16.10;99.90;;;;;;5054884;28;20193;-71
2021/07/07 05:08:45;;;;;;;4.97;3.47;;;16.20;99.90;;;;;;5055938;28;20162;-72
2021/07/07 05:11:11;;;;;;;5.87;3.50;;;16.40;99.90;;;;;;5056379;28;20170;-71
2021/07/07 05:13:37;;;;;;;5.03;2.83;;;16.50;99.90;;;;;;5055861;28;20860;-72
2021/07/07 05:16:03;;;;;;;6.57;3.20;;;16.60;99.90;;;;;;5054811;28;20202;-72
2021/07/07 05:18:30;;;;;;;4.60;2.50;;;16.80;99.90;;;;;;5057771;28;20727;-72
2021/07/07 05:20:55;;;;;;;5.20;2.75;;;17.00;99.90;;;;;;5057529;28;20815;-72
2021/07/07 05:23:21;;;;;;;3.70;2.47;;;17.10;99.90;;;;;;5055752;28;20221;-71
2021/07/07 05:25:47;;;;;;;7.90;3.17;;;17.10;99.90;;;;;;5055137;28;20571;-70
2021/07/07 05:28:12;;;;;;;7.07;2.63;;;17.20;99.90;;;;;;5053282;28;20220;-73
2021/07/07 05:30:38;;;;;;;4.60;2.93;;;17.30;99.90;;;;;;5030273;28;21033;-71
2021/07/07 05:33:06;;;;;;;6.03;3.00;;;17.40;99.90;;;;;;5034925;28;20171;-71
2021/07/07 05:35:32;;;;;;;3.93;2.50;;;17.40;99.90;;;;;;5035616;28;20428;-71
2021/07/07 05:37:57;;;;;;;5.47;2.97;;;17.40;99.90;;;;;;5035362;28;20420;-71
2021/07/07 05:40:23;;;;;;;5.60;2.93;;;17.40;99.90;;;;;;5035913;28;20262;-71
2021/07/07 05:42:52;;;;;;;6.83;2.80;;;17.40;99.90;;;;;;5034693;28;20213;-71
2021/07/07 05:45:20;;;;;;;4.70;3.00;;;17.50;99.90;;;;;;5035399;28;20529;-71
2021/07/07 05:47:46;;;;;;;4.13;2.33;;;17.60;99.90;;;;;;5036259;28;20479;-72
2021/07/07 05:50:12;;;;;;;7.93;3.93;;;17.60;99.90;;;;;;5035265;28;20410;-71
2021/07/07 05:52:38;;;;;;;6.67;4.07;;;17.70;99.90;;;;;;5035283;28;20167;-71
2021/07/07 05:55:04;;;;;;;5.30;2.93;;;17.70;99.90;;;;;;5026963;28;20699;-73
2021/07/07 05:57:39;;;;;;;3.80;2.63;;;17.80;99.90;;;;;;5034027;28;20200;-72
2021/07/07 06:00:23;;;;;;;5.43;2.40;;;17.80;99.90;;;;;;5047440;28;21173;-72
2021/07/07 06:02:51;;;;;;;5.97;3.40;;;17.90;99.90;;;;;;5046803;28;20455;-71
2021/07/07 06:05:17;;;;;;;5.40;2.80;;;18.00;99.90;;;;;;5051198;28;20436;-72
2021/07/07 06:07:43;;;;;;;6.47;2.63;;;18.10;99.90;;;;;;5051408;28;20418;-72
2021/07/07 06:10:11;;;;;;;4.70;2.67;;;18.20;99.90;;;;;;5031808;28;20170;-72
2021/07/07 06:12:37;;;;;;;6.73;2.90;;;18.30;99.90;;;;;;5048022;28;20432;-72
2021/07/07 06:15:05;;;;;;;7.43;2.33;;;18.50;99.90;;;;;;5051557;28;20421;-71
2021/07/07 06:17:30;;;;;;;5.07;2.60;;;18.70;99.90;;;;;;5051197;28;20186;-71
2021/07/07 06:19:56;;;;;;;8.43;3.60;;;18.90;99.90;;;;;;5049530;28;20519;-73
2021/07/07 06:22:22;;;;;;;4.67;2.67;;;19.00;99.90;;;;;;5051579;28;20560;-72
2021/07/07 06:24:47;;;;;;;4.47;2.50;;;19.10;99.90;;;;;;5051772;28;20640;-72
2021/07/07 06:27:13;;;;;;;4.73;2.40;;;19.20;99.90;;;;;;5051642;28;20307;-72
2021/07/07 06:29:38;;;;;;;5.50;2.77;;;19.30;99.90;;;;;;5049753;28;20178;-72
2021/07/07 06:32:04;;;;;;;7.00;2.30;;;19.40;99.90;;;;;;5049927;28;20178;-72
2021/07/07 06:34:30;;;;;;;5.50;2.30;;;19.60;99.90;;;;;;5051298;28;20536;-72
2021/07/07 06:36:55;;;;;;;5.50;2.60;;;19.60;99.90;;;;;;5051234;28;20201;-73
2021/07/07 06:39:21;;;;;;;4.90;2.47;;;19.60;99.90;;;;;;5051054;28;20171;-73
2021/07/07 06:41:46;;;;;;;4.30;2.30;;;19.70;99.90;;;;;;5050181;28;20186;-72
2021/07/07 06:44:12;;;;;;;5.13;2.50;;;19.70;99.90;;;;;;5051870;28;20206;-72
2021/07/07 06:46:37;;;;;;;6.13;2.67;;;19.80;99.90;;;;;;5050654;28;20213;-72
2021/07/07 06:49:04;;;;;;;5.63;2.57;;;19.80;99.90;;;;;;5050762;28;20224;-72
2021/07/07 06:51:29;;;;;;;3.87;2.30;;;19.80;99.90;;;;;;5041988;28;20182;-73
2021/07/07 06:53:55;;;;;;;7.93;3.30;;;19.90;99.90;;;;;;5032297;28;20437;-72
2021/07/07 06:56:21;;;;;;;6.03;2.53;;;19.80;99.90;;;;;;5032093;28;20206;-72
2021/07/07 06:58:46;;;;;;;5.20;2.40;;;19.80;99.90;;;;;;5030953;28;20195;-72
2021/07/07 07:01:12;;;;;;;4.53;2.53;;;19.90;99.90;;;;;;5032549;28;20794;-72
2021/07/07 07:03:37;;;;;;;10.43;3.00;;;19.90;99.90;;;;;;5035654;28;20210;-72
2021/07/07 07:06:03;;;;;;;3.83;2.10;;;20.00;99.90;;;;;;5060874;28;20213;-74
2021/07/07 07:08:28;;;;;;;5.40;3.07;;;20.00;99.90;;;;;;5038971;28;20650;-72
2021/07/07 07:10:54;;;;;;;6.83;2.70;;;20.00;99.90;;;;;;5074981;28;20182;-73
2021/07/07 07:13:20;;;;;;;7.70;2.50;;;20.10;99.90;;;;;;5069876;28;20181;-72
2021/07/07 07:15:47;;;;;;;4.60;2.23;;;20.00;99.90;;;;;;5084055;28;20255;-72
2021/07/07 07:18:13;;;;;;;5.80;2.70;;;19.90;99.90;;;;;;5083197;28;20667;-71
2021/07/07 07:20:38;;;;;;;3.67;2.63;;;19.80;99.90;;;;;;5084720;28;20424;-73
2021/07/07 07:23:04;;;;;;;26.77;5.73;;;19.90;99.90;;;;;;5052626;28;20483;-73
2021/07/07 07:25:30;;;;;;;26.17;5.40;;;19.90;99.90;;;;;;5051718;28;20213;-73
2021/07/07 07:27:56;;;;;;;8.63;3.10;;;20.00;99.90;;;;;;5053239;28;20230;-73
2021/07/07 07:30:22;;;;;;;4.07;2.50;;;20.10;99.90;;;;;;5063967;28;20405;-73
2021/07/07 07:32:48;;;;;;;5.70;2.57;;;20.10;99.90;;;;;;5045225;28;20649;-73
2021/07/07 07:35:17;;;;;;;16.37;5.03;;;20.20;99.90;;;;;;5062220;28;21000;-72
2021/07/07 07:37:50;;;;;;;9.60;3.50;;;20.20;99.90;;;;;;5064612;28;20409;-73
2021/07/07 07:40:27;;;;;;;4.80;2.53;;;20.30;99.90;;;;;;5045235;28;20441;-73
2021/07/07 07:42:54;;;;;;;7.93;2.53;;;20.30;99.90;;;;;;5040736;28;20472;-73
2021/07/07 07:45:20;;;;;;;4.77;2.53;;;20.40;99.90;;;;;;5057349;28;20440;-73
2021/07/07 07:47:46;;;;;;;4.00;2.40;;;20.30;99.90;;;;;;5058334;28;20504;-73
2021/07/07 07:50:14;;;;;;;3.30;2.33;;;20.40;99.90;;;;;;5055325;28;20421;-73
2021/07/07 07:52:41;;;;;;;4.73;2.50;;;20.40;99.90;;;;;;5046055;28;20178;-73
2021/07/07 07:55:08;;;;;;;4.23;2.80;;;20.60;99.90;;;;;;5052957;28;20964;-73
2021/07/07 07:57:38;;;;;;;5.80;2.40;;;20.60;99.90;;;;;;5051794;28;20429;-73
2021/07/07 08:00:13;;;;;;;7.73;2.40;;;20.70;99.90;;;;;;5052721;28;20448;-74
2021/07/07 08:02:39;;;;;;;3.13;2.20;;;20.70;99.90;;;;;;5048310;28;20528;-74
2021/07/07 08:05:05;;;;;;;6.17;2.87;;;20.80;99.90;;;;;;5034805;28;22334;-73
2021/07/07 08:07:32;;;;;;;4.03;2.47;;;20.90;99.90;;;;;;5053128;28;20300;-73
2021/07/07 08:09:58;;;;;;;6.10;3.00;;;20.90;99.90;;;;;;5052427;28;20747;-73
2021/07/07 08:12:24;;;;;;;5.17;2.70;;;21.10;99.90;;;;;;5057317;28;20193;-73
2021/07/07 08:14:51;;;;;;;3.50;2.30;;;21.10;99.90;;;;;;5075470;28;20407;-74
2021/07/07 08:17:18;;;;;;;4.47;2.83;;;21.20;99.90;;;;;;5043560;28;20175;-73
2021/07/07 08:19:44;;;;;;;5.77;2.90;;;21.30;99.90;;;;;;5033583;28;20456;-72
2021/07/07 08:22:10;;;;;;;6.17;3.70;;;21.40;99.90;;;;;;5032995;28;20414;-73
2021/07/07 08:24:35;;;;;;;7.50;3.23;;;21.50;99.90;;;;;;5033529;28;20262;-71
2021/07/07 08:27:01;;;;;;;27.47;6.00;;;21.50;99.90;;;;;;5042965;28;20293;-73
2021/07/07 08:29:27;;;;;;;23.23;10.87;;;21.50;99.90;;;;;;5055615;28;20190;-73
2021/07/07 08:31:53;;;;;;;12.93;5.93;;;21.60;99.90;;;;;;5042568;28;20190;-73
2021/07/07 08:34:19;;;;;;;22.20;5.40;;;21.70;99.90;;;;;;5033444;28;20193;-73
2021/07/07 08:36:45;;;;;;;11.97;4.10;;;21.70;99.90;;;;;;5047278;28;20244;-73
2021/07/07 08:39:11;;;;;;;10.73;4.50;;;21.80;99.90;;;;;;5032917;28;20453;-73
2021/07/07 08:41:38;;;;;;;14.87;4.07;;;22.00;99.90;;;;;;5032595;28;20206;-74
2021/07/07 08:44:06;;;;;;;16.83;4.17;;;22.00;99.90;;;;;;5044854;28;20218;-73
2021/07/07 08:46:32;;;;;;;19.63;5.63;;;22.10;99.90;;;;;;5051657;28;20566;-72
2021/07/07 08:48:58;;;;;;;13.90;3.37;;;22.00;98.70;;;;;;5040535;28;20425;-73
2021/07/07 08:51:24;;;;;;;6.97;3.33;;;22.20;98.90;;;;;;5052564;28;20862;-73
2021/07/07 08:53:49;;;;;;;7.90;3.40;;;22.20;99.00;;;;;;5052054;28;20193;-72
2021/07/07 08:56:15;;;;;;;5.70;2.77;;;22.20;98.70;;;;;;5052000;28;20244;-73
2021/07/07 08:58:41;;;;;;;4.10;2.70;;;22.30;98.50;;;;;;5047559;28;20656;-73
2021/07/07 09:01:06;;;;;;;5.10;2.90;;;22.50;98.10;;;;;;5039828;28;20834;-73
2021/07/07 09:03:32;;;;;;;6.13;3.37;;;22.50;97.90;;;;;;5052060;28;20292;-73
2021/07/07 09:06:03;;;;;;;3.63;2.60;;;22.60;97.70;;;;;;5051921;28;20237;-73
2021/07/07 09:08:37;;;;;;;5.80;2.80;;;22.60;97.60;;;;;;5053924;28;20155;-73
2021/07/07 09:11:24;;;;;;;3.47;2.40;;;22.60;97.30;;;;;;5051859;28;20416;-73
2021/07/07 09:14:06;;;;;;;3.60;2.60;;;22.60;96.30;;;;;;5065580;28;20511;-72
2021/07/07 09:16:46;;;;;;;5.07;2.67;;;22.70;96.80;;;;;;5059347;28;20432;-73
2021/07/07 09:19:17;;;;;;;4.00;2.47;;;22.70;97.00;;;;;;5051518;28;20546;-74
2021/07/07 09:21:50;;;;;;;4.80;2.70;;;22.80;96.60;;;;;;5031783;28;20930;-73
2021/07/07 09:24:23;;;;;;;3.57;2.60;;;22.90;96.30;;;;;;5031450;28;20791;-73
2021/07/07 09:27:05;;;;;;;4.40;2.40;;;22.90;95.80;;;;;;5030263;28;20939;-73
2021/07/07 09:29:46;;;;;;;45.13;8.70;;;23.00;95.20;;;;;;5050581;28;20421;-73
2021/07/07 09:32:22;;;;;;;35.03;7.07;;;23.00;95.10;;;;;;5036757;28;20413;-72
2021/07/07 09:34:51;;;;;;;7.40;3.20;;;23.00;95.00;;;;;;5031083;28;20899;-74
2021/07/07 09:37:23;;;;;;;9.00;3.30;;;23.00;94.90;;;;;;5033150;28;20512;-73
2021/07/07 09:39:48;;;;;;;4.43;2.80;;;23.10;95.00;;;;;;5042780;28;20511;-74
2021/07/07 09:42:25;;;;;;;10.17;3.03;;;23.20;94.80;;;;;;5052394;28;20405;-74
2021/07/07 09:44:51;;;;;;;6.67;2.70;;;23.20;94.50;;;;;;5052460;28;20209;-73
2021/07/07 09:47:19;;;;;;;14.00;3.83;;;23.20;94.70;;;;;;5052378;28;20770;-73
2021/07/07 09:49:47;;;;;;;9.07;3.10;;;23.30;94.80;;;;;;5039266;28;20413;-73
2021/07/07 09:52:17;;;;;;;5.83;2.93;;;23.40;95.00;;;;;;5032174;28;20445;-73
2021/07/07 09:54:44;;;;;;;12.63;4.93;;;23.50;95.00;;;;;;5032906;28;20429;-72
2021/07/07 09:57:09;;;;;;;28.47;5.60;;;23.60;94.90;;;;;;5034426;28;20459;-73
2021/07/07 09:59:36;;;;;;;8.23;2.93;;;23.60;94.50;;;;;;5035990;28;20776;-72
2021/07/07 10:02:03;;;;;;;4.83;2.63;;;23.70;94.20;;;;;;5035412;28;20572;-73
2021/07/07 10:04:33;;;;;;;3.87;2.80;;;23.70;94.00;;;;;;5035283;28;20465;-72
2021/07/07 10:06:59;;;;;;;3.20;2.67;;;23.60;94.10;;;;;;5033805;28;20434;-73
2021/07/07 10:09:26;;;;;;;5.83;3.13;;;23.60;94.10;;;;;;5034892;28;20448;-74
2021/07/07 10:11:57;;;;;;;5.67;3.10;;;23.30;94.30;;;;;;5049376;28;20512;-72
2021/07/07 10:14:23;;;;;;;9.53;3.80;;;23.50;94.80;;;;;;5054619;28;20409;-73
2021/07/07 10:16:50;;;;;;;5.87;2.80;;;23.70;94.40;;;;;;5055103;28;20432;-72
2021/07/07 10:19:16;;;;;;;11.87;3.60;;;23.90;94.30;;;;;;5055112;28;20437;-73
2021/07/07 10:21:42;;;;;;;3.83;2.47;;;23.80;93.80;;;;;;5053335;28;20424;-74
2021/07/07 10:24:09;;;;;;;5.50;2.30;;;23.80;93.70;;;;;;5054898;28;20452;-72
2021/07/07 10:26:39;;;;;;;4.50;2.70;;;23.80;93.70;;;;;;5055897;28;20201;-72
2021/07/07 10:29:05;;;;;;;6.50;2.73;;;23.80;93.80;;;;;;5055950;28;20396;-72
2021/07/07 10:31:59;;;;;;;7.10;2.80;;;23.90;93.90;;;;;;5055022;28;20447;-72
2021/07/07 10:34:27;;;;;;;5.10;2.73;;;24.10;93.80;;;;;;5053850;28;20405;-73
2021/07/07 10:36:54;;;;;;;6.10;3.00;;;24.20;93.40;;;;;;5054873;28;20428;-73
2021/07/07 10:39:20;;;;;;;3.80;2.37;;;24.30;92.90;;;;;;5051097;28;20924;-74
2021/07/07 10:41:48;;;;;;;5.97;2.70;;;24.50;93.00;;;;;;5050698;28;20451;-74
2021/07/07 10:44:23;;;;;;;6.83;3.40;;;24.60;92.50;;;;;;5031002;28;20712;-74
2021/07/07 10:46:52;;;;;;;5.90;3.10;;;24.60;92.70;;;;;;5051544;28;20439;-74
2021/07/07 10:49:21;;;;;;;3.37;3.07;;;24.50;93.20;;;;;;5051597;28;20520;-74
2021/07/07 10:51:49;;;;;;;4.73;2.70;;;24.60;93.30;;;;;;5051406;28;20519;-74
2021/07/07 10:54:32;;;;;;;4.20;2.50;;;24.50;92.60;;;;;;5048955;28;20427;-74
2021/07/07 10:56:59;;;;;;;4.90;3.07;;;24.20;92.40;;;;;;5054328;28;20449;-72
2021/07/07 10:59:33;;;;;;;3.80;3.37;;;23.90;93.10;;;;;;5054430;28;20413;-73
2021/07/07 11:02:01;;;;;;;4.97;3.17;;;24.00;93.30;;;;;;5054258;28;20409;-73
2021/07/07 11:04:41;;;;;;;4.33;2.87;;;23.90;92.80;;;;;;5052477;28;20456;-72
2021/07/07 11:07:31;;;;;;;3.83;2.80;;;23.80;92.90;;;;;;5054093;28;20428;-72
2021/07/07 11:10:01;;;;;;;5.10;2.90;;;23.70;93.00;;;;;;5053017;28;20416;-72
2021/07/07 11:12:35;;;;;;;3.73;2.57;;;23.70;93.30;;;;;;5054076;28;20403;-72
2021/07/07 11:15:08;;;;;;;4.40;2.80;;;23.80;93.40;;;;;;5043390;28;21118;-72
2021/07/07 11:17:45;;;;;;;4.40;2.60;;;23.80;92.60;;;;;;5034817;28;20401;-72
2021/07/07 11:20:13;;;;;;;4.83;2.83;;;23.70;92.50;;;;;;5033936;28;20433;-73
2021/07/07 11:22:41;;;;;;;5.63;2.87;;;23.70;92.40;;;;;;5034748;28;20446;-73
2021/07/07 11:25:09;;;;;;;6.17;3.03;;;23.50;91.80;;;;;;5039872;28;20455;-73
2021/07/07 11:27:36;;;;;;;3.20;2.17;;;23.50;91.80;;;;;;5055174;28;20496;-72
2021/07/07 11:30:04;;;;;;;2.80;2.03;;;23.60;91.30;;;;;;5054713;28;20413;-73
2021/07/07 11:32:33;;;;;;;7.23;3.17;;;23.60;90.10;;;;;;5053626;28;20430;-73
2021/07/07 11:35:00;;;;;;;3.87;2.27;;;23.60;88.60;;;;;;5053279;28;20401;-74
2021/07/07 11:37:31;;;;;;;4.43;2.40;;;23.50;88.70;;;;;;5053239;28;20428;-73
2021/07/07 11:40:19;;;;;;;6.13;2.50;;;23.50;89.80;;;;;;5054152;28;20413;-74
2021/07/07 11:43:01;;;;;;;8.33;2.70;;;23.60;89.90;;;;;;5050484;28;20445;-73
2021/07/07 11:46:11;;;;;;;4.73;2.30;;;23.70;89.00;;;;;;5049392;28;20953;-73
2021/07/07 11:48:41;;;;;;;5.33;2.27;;;23.80;89.30;;;;;;5028483;28;20972;-73
2021/07/07 11:51:14;;;;;;;2.40;2.07;;;23.90;88.60;;;;;;5010617;28;20425;-73
2021/07/07 11:53:45;;;;;;;4.07;2.30;;;24.10;88.20;;;;;;5026012;28;20541;-73
2021/07/07 11:56:21;;;;;;;5.60;2.70;;;24.20;85.20;;;;;;5026987;28;20437;-73
2021/07/07 11:58:57;;;;;;;3.20;2.07;;;24.20;85.70;;;;;;5027217;28;20445;-73
2021/07/07 12:01:24;;;;;;;2.93;2.10;;;24.20;85.40;;;;;;5027922;28;20413;-73
2021/07/07 12:04:08;;;;;;;4.57;2.20;;;24.30;85.30;;;;;;5027599;28;20595;-72
2021/07/07 12:06:37;;;;;;;2.77;2.13;;;24.10;84.20;;;;;;5009905;28;20519;-73
2021/07/07 12:09:06;;;;;;;5.57;2.37;;;24.00;84.90;;;;;;5026319;28;20452;-73
2021/07/07 12:11:31;;;;;;;4.63;2.87;;;23.90;84.50;;;;;;5027528;28;20915;-74
2021/07/07 12:13:57;;;;;;;3.23;2.10;;;23.90;85.00;;;;;;5010342;28;20429;-73
2021/07/07 12:16:34;;;;;;;3.87;2.83;;;23.90;84.60;;;;;;5027912;28;20199;-73
2021/07/07 12:19:01;;;;;;;5.73;2.60;;;23.80;85.00;;;;;;5024858;28;20191;-74
2021/07/07 12:21:26;;;;;;;7.77;2.97;;;23.80;85.70;;;;;;5029166;28;20447;-74
2021/07/07 12:23:57;;;;;;;3.50;2.20;;;24.00;85.50;;;;;;5029232;28;20429;-74
2021/07/07 12:26:27;;;;;;;2.50;1.97;;;24.00;85.40;;;;;;5049663;28;20212;-74
2021/07/07 12:28:56;;;;;;;2.93;1.97;;;24.10;84.80;;;;;;5045764;28;20433;-74
2021/07/07 12:31:23;;;;;;;5.63;2.50;;;24.20;84.70;;;;;;5044526;28;20432;-73
2021/07/07 12:33:53;;;;;;;2.33;1.93;;;24.20;84.00;;;;;;5050058;28;20420;-73
2021/07/07 12:36:32;;;;;;;3.37;2.10;;;24.10;84.10;;;;;;5049682;28;20439;-73
2021/07/07 12:39:00;;;;;;;3.70;2.07;;;24.10;83.20;;;;;;5048201;28;20432;-73
2021/07/07 12:41:40;;;;;;;4.27;2.40;;;24.00;83.40;;;;;;5050113;28;20772;-72
2021/07/07 12:44:15;;;;;;;6.10;2.20;;;23.90;83.30;;;;;;5048990;28;20464;-72
2021/07/07 12:46:51;;;;;;;4.40;2.20;;;23.80;83.40;;;;;;5048384;28;20448;-74
2021/07/07 12:49:24;;;;;;;3.70;2.40;;;23.80;83.40;;;;;;5035461;28;20433;-73
2021/07/07 12:51:51;;;;;;;4.33;2.73;;;23.80;84.10;;;;;;5029929;28;20831;-74